Time;durP1;ratioP1;P1;durP2;ratioP2;P2;SDS_P1;SDS_P2;PMS_P1;PMS_P2;Temp;Humidity;BMP_temperature;BMP_pressure;BME280_temperature;BME280_humidity;BME280_pressure;Samples;Min_cycle;Max_cycle;Signal;HPM_P1;HPM_P2
2024/02/10 00:02:10;;;;;;;0.60;0.32;;;14.60;75.10;;;;;;2435627;56;21010;-69
2024/02/10 00:04:40;;;;;;;0.77;0.40;;;14.60;74.40;;;;;;2216179;57;20945;-68
2024/02/10 00:07:06;;;;;;;1.12;0.40;;;14.70;74.60;;;;;;2215799;56;21030;-67
2024/02/10 00:09:33;;;;;;;1.27;0.40;;;14.70;74.60;;;;;;2216153;57;21108;-69
2024/02/10 00:12:00;;;;;;;1.02;0.50;;;14.70;74.60;;;;;;2215835;57;20974;-68
2024/02/10 00:14:26;;;;;;;2.83;0.90;;;14.70;74.70;;;;;;2435544;56;20969;-69
2024/02/10 00:16:53;;;;;;;0.95;0.45;;;14.70;74.70;;;;;;2215890;57;20930;-68
2024/02/10 00:19:21;;;;;;;1.30;0.50;;;14.70;74.70;;;;;;2216409;57;20954;-67
2024/02/10 00:21:47;;;;;;;1.50;0.55;;;14.70;74.70;;;;;;2435567;56;21238;-68
2024/02/10 00:24:17;;;;;;;1.90;0.85;;;14.70;74.70;;;;;;2216170;57;20977;-69
2024/02/10 00:26:45;;;;;;;2.03;0.77;;;14.70;74.60;;;;;;2435605;56;21583;-70
2024/02/10 00:29:13;;;;;;;2.60;0.95;;;14.70;74.50;;;;;;2435332;56;20982;-69
2024/02/10 00:31:43;;;;;;;2.15;0.90;;;14.80;74.50;;;;;;2215975;57;21041;-69
2024/02/10 00:34:10;;;;;;;1.77;0.75;;;14.80;74.60;;;;;;2435213;56;20974;-70
2024/02/10 00:36:36;;;;;;;2.00;0.70;;;14.70;74.50;;;;;;2435211;56;21215;-67
2024/02/10 00:39:04;;;;;;;2.45;0.88;;;14.80;74.60;;;;;;2435252;56;20982;-69
2024/02/10 00:41:30;;;;;;;1.37;0.75;;;14.70;74.50;;;;;;2435627;56;21040;-68
2024/02/10 00:43:56;;;;;;;1.65;0.70;;;14.70;74.40;;;;;;2215349;56;20978;-67
2024/02/10 00:46:23;;;;;;;2.53;0.80;;;14.80;74.40;;;;;;2216357;57;21005;-70
2024/02/10 00:48:54;;;;;;;1.23;0.57;;;14.80;74.30;;;;;;2435265;56;21029;-68
2024/02/10 00:51:21;;;;;;;1.92;0.52;;;14.80;74.30;;;;;;2435682;56;21022;-69
2024/02/10 00:53:48;;;;;;;2.40;0.75;;;14.80;74.30;;;;;;2216614;57;21330;-68
2024/02/10 00:56:14;;;;;;;2.30;0.93;;;14.70;74.30;;;;;;2216907;56;20953;-68
2024/02/10 00:58:44;;;;;;;2.03;0.62;;;14.80;74.30;;;;;;2216271;56;21569;-68
2024/02/10 01:01:12;;;;;;;2.25;0.80;;;14.70;74.30;;;;;;2214138;57;20993;-69
2024/02/10 01:03:44;;;;;;;1.70;0.62;;;14.80;74.40;;;;;;2218051;56;21499;-68
2024/02/10 01:06:15;;;;;;;2.78;1.02;;;14.70;74.30;;;;;;2215975;57;20994;-70
2024/02/10 01:08:48;;;;;;;2.65;1.12;;;14.80;75.00;;;;;;2216046;56;21089;-70
2024/02/10 01:11:22;;;;;;;3.22;1.42;;;14.70;74.10;;;;;;2216512;56;20993;-69
2024/02/10 01:13:49;;;;;;;4.45;1.40;;;14.80;74.30;;;;;;2215987;56;21005;-69
2024/02/10 01:16:17;;;;;;;3.00;1.40;;;14.80;74.30;;;;;;2435912;56;20994;-69
2024/02/10 01:18:44;;;;;;;2.42;1.10;;;14.70;74.30;;;;;;2217567;57;21848;-68
2024/02/10 01:21:12;;;;;;;2.70;1.08;;;14.80;74.30;;;;;;2434936;56;20969;-68
2024/02/10 01:23:42;;;;;;;2.30;0.85;;;14.70;74.20;;;;;;2435492;56;20938;-68
2024/02/10 01:26:09;;;;;;;2.15;0.80;;;14.70;74.20;;;;;;2435601;56;21550;-68
2024/02/10 01:28:37;;;;;;;2.30;0.90;;;14.70;74.00;;;;;;2435523;57;21000;-68
2024/02/10 01:31:06;;;;;;;2.37;1.02;;;14.70;74.00;;;;;;2216177;57;21362;-69
2024/02/10 01:33:33;;;;;;;1.75;0.80;;;14.70;73.70;;;;;;2216036;56;20986;-67
2024/02/10 01:36:03;;;;;;;2.35;0.73;;;14.60;74.30;;;;;;2434846;56;20974;-68
2024/02/10 01:38:30;;;;;;;1.85;0.70;;;14.60;73.60;;;;;;2216246;56;20966;-69
2024/02/10 01:40:57;;;;;;;1.42;0.60;;;14.60;73.80;;;;;;2435555;56;21050;-70
2024/02/10 01:43:23;;;;;;;1.80;0.65;;;14.60;73.80;;;;;;2432687;57;20982;-69
2024/02/10 01:45:50;;;;;;;1.50;0.70;;;14.60;73.80;;;;;;2434954;56;21010;-68
2024/02/10 01:48:20;;;;;;;1.73;0.65;;;14.50;73.70;;;;;;2435177;56;20990;-68
2024/02/10 01:50:46;;;;;;;1.52;0.75;;;14.50;73.60;;;;;;2215428;57;21075;-68
2024/02/10 01:53:13;;;;;;;2.33;0.77;;;14.50;73.60;;;;;;2433731;56;21025;-68
2024/02/10 01:55:39;;;;;;;2.28;1.00;;;14.50;73.60;;;;;;2211269;57;21062;-69
2024/02/10 01:58:06;;;;;;;2.83;1.23;;;14.50;73.50;;;;;;2431081;56;21029;-69
2024/02/10 02:00:32;;;;;;;3.67;1.30;;;14.40;73.40;;;;;;2435306;56;21034;-70
2024/02/10 02:02:59;;;;;;;2.97;1.20;;;14.40;73.40;;;;;;2434115;56;21478;-69
2024/02/10 02:05:26;;;;;;;5.18;1.45;;;14.40;73.30;;;;;;2216153;57;21034;-67
2024/02/10 02:07:54;;;;;;;5.20;1.83;;;14.40;73.30;;;;;;2434695;57;21286;-69
2024/02/10 02:10:21;;;;;;;3.95;1.60;;;14.40;73.20;;;;;;2215909;56;21053;-68
2024/02/10 02:12:48;;;;;;;4.43;1.80;;;14.30;73.10;;;;;;2215416;56;20994;-71
2024/02/10 02:15:18;;;;;;;3.33;1.60;;;14.30;73.20;;;;;;2216039;57;21005;-68
2024/02/10 02:17:44;;;;;;;4.28;1.62;;;14.30;73.20;;;;;;2435396;56;21514;-69
2024/02/10 02:20:11;;;;;;;3.62;1.40;;;14.20;73.20;;;;;;2215720;57;21356;-68
2024/02/10 02:22:54;;;;;;;2.85;0.88;;;14.20;73.20;;;;;;2219349;57;20937;-67
2024/02/10 02:25:21;;;;;;;2.37;0.90;;;14.20;72.90;;;;;;2435880;56;20997;-67
2024/02/10 02:27:47;;;;;;;1.90;0.70;;;14.20;73.30;;;;;;2215750;56;21762;-67
2024/02/10 02:30:15;;;;;;;2.22;0.50;;;14.20;73.40;;;;;;2435140;56;21041;-68
2024/02/10 02:32:41;;;;;;;1.23;0.50;;;14.10;73.30;;;;;;2216350;57;21038;-68
2024/02/10 02:35:10;;;;;;;1.42;0.50;;;14.10;73.40;;;;;;2215857;57;20973;-67
2024/02/10 02:37:40;;;;;;;1.77;0.80;;;14.10;73.50;;;;;;2215787;57;21036;-68
2024/02/10 02:40:11;;;;;;;1.45;0.60;;;14.00;73.50;;;;;;2215643;57;21057;-68
2024/02/10 02:42:37;;;;;;;1.92;0.50;;;14.00;73.50;;;;;;2435442;56;21021;-68
2024/02/10 02:45:05;;;;;;;2.97;0.60;;;14.00;73.70;;;;;;2216169;57;21045;-70
2024/02/10 02:47:32;;;;;;;1.67;0.50;;;14.00;73.70;;;;;;2216579;56;20992;-68
2024/02/10 02:49:59;;;;;;;1.75;0.50;;;14.00;73.80;;;;;;2219186;56;20958;-68
2024/02/10 02:52:27;;;;;;;2.08;0.50;;;14.00;73.80;;;;;;2223082;56;21022;-69
2024/02/10 02:55:10;;;;;;;2.05;0.70;;;13.90;73.70;;;;;;2214882;57;21372;-68
2024/02/10 02:57:36;;;;;;;1.37;0.50;;;14.00;73.50;;;;;;2219412;57;20957;-68
2024/02/10 03:00:04;;;;;;;1.62;0.60;;;13.90;73.80;;;;;;2222537;56;21413;-69
2024/02/10 03:02:32;;;;;;;2.47;0.40;;;13.90;73.80;;;;;;2436539;56;21033;-68
2024/02/10 03:04:58;;;;;;;2.62;0.40;;;13.90;73.80;;;;;;2219021;56;21914;-69
2024/02/10 03:07:30;;;;;;;1.15;0.50;;;13.80;73.70;;;;;;2215407;57;20977;-69
2024/02/10 03:09:56;;;;;;;1.17;0.45;;;13.90;73.80;;;;;;2219276;56;20969;-69
2024/02/10 03:12:23;;;;;;;1.10;0.40;;;13.90;73.80;;;;;;2436015;56;20989;-70
2024/02/10 03:14:50;;;;;;;1.60;0.40;;;13.90;73.90;;;;;;2434870;56;20966;-71
2024/02/10 03:17:21;;;;;;;0.50;0.30;;;13.90;73.90;;;;;;2435635;56;21010;-68
2024/02/10 03:19:48;;;;;;;0.98;0.47;;;13.90;74.40;;;;;;2216302;57;21022;-68
2024/02/10 03:22:14;;;;;;;1.15;0.55;;;13.90;73.80;;;;;;2436271;56;20981;-68
2024/02/10 03:24:47;;;;;;;0.70;0.40;;;13.90;73.80;;;;;;2220994;57;20971;-69
2024/02/10 03:27:15;;;;;;;0.88;0.35;;;13.90;73.90;;;;;;2216004;56;20990;-68
2024/02/10 03:29:41;;;;;;;0.62;0.30;;;13.90;73.90;;;;;;2435483;56;21025;-68
2024/02/10 03:32:07;;;;;;;2.20;0.70;;;13.90;73.90;;;;;;2435334;56;21006;-68
2024/02/10 03:34:34;;;;;;;2.28;1.10;;;13.90;73.80;;;;;;2216167;57;21373;-70
2024/02/10 03:37:01;;;;;;;2.92;1.33;;;13.90;73.70;;;;;;2218829;57;21482;-67
2024/02/10 03:39:27;;;;;;;2.67;1.48;;;13.90;73.70;;;;;;2215922;57;21487;-69
2024/02/10 03:41:54;;;;;;;3.33;1.42;;;13.80;73.70;;;;;;2214887;56;21342;-68
2024/02/10 03:44:22;;;;;;;3.05;1.62;;;13.80;73.80;;;;;;2435533;56;20997;-70
2024/02/10 03:47:00;;;;;;;3.10;1.40;;;13.80;73.80;;;;;;2435302;56;21880;-70
2024/02/10 03:49:29;;;;;;;2.83;1.35;;;13.80;73.60;;;;;;2434945;56;20950;-68
2024/02/10 03:51:56;;;;;;;3.10;1.40;;;13.80;73.90;;;;;;2219273;57;20957;-68
2024/02/10 03:54:22;;;;;;;3.70;1.45;;;13.80;74.10;;;;;;2436184;56;20957;-69
2024/02/10 03:56:49;;;;;;;2.87;1.33;;;13.80;74.10;;;;;;2216609;57;20985;-68
2024/02/10 03:59:16;;;;;;;2.60;1.40;;;13.80;74.20;;;;;;2216242;57;21412;-70
2024/02/10 04:01:46;;;;;;;2.15;1.10;;;13.90;74.30;;;;;;2437097;56;20973;-67
2024/02/10 04:04:13;;;;;;;3.53;1.60;;;13.80;74.20;;;;;;2434909;56;20966;-70
2024/02/10 04:06:41;;;;;;;2.08;0.95;;;13.80;74.20;;;;;;2436014;56;21016;-70
2024/02/10 04:09:07;;;;;;;2.58;1.25;;;13.80;74.20;;;;;;2215801;56;20958;-68
2024/02/10 04:11:34;;;;;;;2.95;1.02;;;13.90;74.30;;;;;;2216282;57;20938;-69
2024/02/10 04:14:00;;;;;;;1.90;1.00;;;13.80;74.10;;;;;;2215678;57;21492;-68
2024/02/10 04:16:26;;;;;;;2.83;1.15;;;13.80;74.70;;;;;;2220028;56;20994;-68
2024/02/10 04:18:59;;;;;;;2.30;1.00;;;13.80;74.00;;;;;;2215801;57;20986;-68
2024/02/10 04:21:26;;;;;;;2.60;1.17;;;13.90;74.10;;;;;;2216759;56;21017;-71
2024/02/10 04:23:52;;;;;;;3.70;1.25;;;13.80;74.00;;;;;;2216231;57;20989;-70
2024/02/10 04:26:19;;;;;;;2.25;1.20;;;13.80;74.00;;;;;;2435765;57;21803;-70
2024/02/10 04:28:45;;;;;;;2.95;1.58;;;13.80;74.10;;;;;;2216275;57;21246;-70
2024/02/10 04:31:14;;;;;;;2.90;1.60;;;13.80;74.10;;;;;;2215981;56;21195;-68
2024/02/10 04:33:50;;;;;;;2.45;1.12;;;13.80;74.00;;;;;;2435771;56;21070;-67
2024/02/10 04:36:16;;;;;;;2.67;1.20;;;13.80;74.10;;;;;;2216313;57;21045;-70
2024/02/10 04:38:43;;;;;;;2.60;1.15;;;13.80;74.10;;;;;;2436193;56;21017;-68
2024/02/10 04:41:09;;;;;;;2.17;0.93;;;13.80;74.10;;;;;;2216226;56;21021;-69
2024/02/10 04:43:36;;;;;;;3.47;1.48;;;13.80;74.10;;;;;;2436309;56;20970;-69
2024/02/10 04:46:02;;;;;;;2.50;1.10;;;13.90;74.20;;;;;;2438171;56;20951;-70
2024/02/10 04:48:28;;;;;;;3.33;1.30;;;13.80;74.10;;;;;;2437271;56;21466;-69
2024/02/10 04:50:59;;;;;;;3.40;1.33;;;13.80;74.10;;;;;;2219690;57;21002;-68
2024/02/10 04:53:26;;;;;;;2.25;1.10;;;13.80;74.10;;;;;;2214589;57;21009;-70
2024/02/10 04:55:52;;;;;;;2.12;1.00;;;13.80;74.10;;;;;;2435571;56;21018;-69
2024/02/10 04:58:19;;;;;;;2.83;0.98;;;13.80;74.00;;;;;;2226513;57;21345;-69
2024/02/10 05:00:46;;;;;;;2.15;0.95;;;13.80;73.80;;;;;;2215379;56;21017;-70
2024/02/10 05:03:12;;;;;;;2.78;1.27;;;13.80;73.80;;;;;;2438187;56;21983;-70
2024/02/10 05:05:42;;;;;;;3.37;1.50;;;13.80;73.80;;;;;;2219282;57;20997;-69
2024/02/10 05:08:12;;;;;;;2.85;1.30;;;13.80;73.70;;;;;;2216176;57;20976;-69
2024/02/10 05:10:41;;;;;;;2.83;1.33;;;13.70;73.70;;;;;;2435572;56;21455;-70
2024/02/10 05:13:07;;;;;;;2.17;1.12;;;13.70;73.70;;;;;;2435208;56;21737;-68
2024/02/10 05:15:34;;;;;;;2.33;1.00;;;13.70;73.80;;;;;;2216404;57;20953;-69
2024/02/10 05:18:04;;;;;;;2.80;1.20;;;13.70;73.80;;;;;;2435163;56;21878;-69
2024/02/10 05:20:31;;;;;;;7.45;1.67;;;13.70;73.70;;;;;;2216316;56;21049;-68
2024/02/10 05:22:58;;;;;;;2.53;1.30;;;13.70;73.70;;;;;;2435598;56;20978;-68
2024/02/10 05:25:27;;;;;;;3.70;1.77;;;13.70;73.70;;;;;;2435901;56;21290;-70
2024/02/10 05:27:54;;;;;;;4.20;1.30;;;13.70;73.60;;;;;;2435145;56;20934;-68
2024/02/10 05:30:23;;;;;;;2.15;0.98;;;13.70;73.60;;;;;;2219755;57;20969;-71
2024/02/10 05:32:50;;;;;;;2.58;1.20;;;13.70;73.60;;;;;;2434594;56;21498;-70
2024/02/10 05:35:20;;;;;;;2.90;1.05;;;13.60;73.60;;;;;;2215890;57;20980;-68
2024/02/10 05:37:53;;;;;;;2.80;1.27;;;13.60;73.60;;;;;;2435491;57;20978;-68
2024/02/10 05:40:26;;;;;;;2.92;1.30;;;13.60;73.60;;;;;;2436078;56;20994;-71
2024/02/10 05:42:56;;;;;;;3.30;1.30;;;13.60;74.20;;;;;;2435240;57;21945;-67
2024/02/10 05:45:22;;;;;;;2.42;1.10;;;13.60;73.70;;;;;;2216466;57;20962;-68
2024/02/10 05:47:52;;;;;;;2.03;1.00;;;13.60;73.70;;;;;;2223788;57;20995;-69
2024/02/10 05:50:22;;;;;;;1.87;0.88;;;13.60;73.70;;;;;;2437798;56;20965;-68
2024/02/10 05:52:50;;;;;;;2.22;0.82;;;13.60;73.70;;;;;;2435897;56;21590;-68
2024/02/10 05:55:20;;;;;;;2.25;0.90;;;13.60;73.70;;;;;;2217229;56;20969;-68
2024/02/10 05:57:46;;;;;;;3.10;1.02;;;13.60;73.70;;;;;;2214526;57;20957;-68
2024/02/10 06:00:14;;;;;;;2.45;0.80;;;13.50;73.60;;;;;;2215664;56;21051;-70
2024/02/10 06:02:43;;;;;;;4.45;3.05;;;13.50;73.60;;;;;;2215208;57;20930;-69
2024/02/10 06:05:13;;;;;;;5.37;2.78;;;13.50;73.70;;;;;;2215655;57;21746;-70
2024/02/10 06:07:41;;;;;;;3.42;2.37;;;13.50;73.70;;;;;;2435567;56;21852;-68
2024/02/10 06:10:12;;;;;;;3.03;1.70;;;13.50;73.80;;;;;;2215477;57;20986;-69
2024/02/10 06:12:51;;;;;;;2.47;1.20;;;13.50;73.90;;;;;;2436120;56;20965;-68
2024/02/10 06:15:19;;;;;;;2.72;1.20;;;13.50;73.80;;;;;;2435213;56;21033;-70
2024/02/10 06:17:51;;;;;;;2.08;1.10;;;13.50;74.10;;;;;;2216281;57;20974;-68
2024/02/10 06:20:22;;;;;;;3.47;1.30;;;13.50;74.10;;;;;;2435367;56;20986;-69
2024/02/10 06:22:50;;;;;;;2.70;1.10;;;13.50;74.00;;;;;;2219105;57;20958;-68
2024/02/10 06:25:22;;;;;;;2.22;1.02;;;13.50;73.90;;;;;;2222085;57;20966;-69
2024/02/10 06:27:52;;;;;;;2.90;1.00;;;13.50;74.00;;;;;;2220366;56;21840;-68
2024/02/10 06:30:21;;;;;;;2.70;1.02;;;13.50;74.00;;;;;;2216364;57;20977;-70
2024/02/10 06:32:47;;;;;;;2.08;1.00;;;13.50;74.00;;;;;;2216750;57;20970;-70
2024/02/10 06:35:15;;;;;;;3.15;1.30;;;13.50;74.00;;;;;;2216402;57;21482;-68
2024/02/10 06:37:42;;;;;;;2.37;1.20;;;13.50;74.00;;;;;;2216585;57;21042;-70
2024/02/10 06:40:13;;;;;;;2.90;1.37;;;13.50;74.00;;;;;;2216181;57;20997;-68
2024/02/10 06:42:39;;;;;;;2.80;1.55;;;13.60;74.00;;;;;;2217361;57;20978;-69
2024/02/10 06:45:11;;;;;;;3.30;1.62;;;13.50;73.90;;;;;;2435414;57;21010;-68
2024/02/10 06:47:38;;;;;;;2.87;1.55;;;13.50;73.80;;;;;;2415876;56;21020;-68
2024/02/10 06:50:05;;;;;;;2.80;1.60;;;13.50;73.80;;;;;;2222450;57;21483;-70
2024/02/10 06:52:37;;;;;;;3.15;1.75;;;13.50;73.80;;;;;;2436948;56;21026;-68
2024/02/10 06:55:04;;;;;;;2.87;1.30;;;13.50;73.80;;;;;;2435651;56;20977;-69
2024/02/10 06:57:34;;;;;;;3.47;1.67;;;13.50;73.80;;;;;;2216941;57;21017;-70
2024/02/10 07:00:03;;;;;;;2.70;1.40;;;13.40;73.60;;;;;;2216086;57;21425;-68
2024/02/10 07:02:30;;;;;;;4.25;1.60;;;13.40;73.60;;;;;;2216677;57;21037;-68
2024/02/10 07:04:57;;;;;;;3.10;1.40;;;13.40;73.70;;;;;;2435640;56;21429;-68
2024/02/10 07:07:24;;;;;;;3.42;1.52;;;13.40;73.70;;;;;;2216824;56;20990;-71
2024/02/10 07:09:58;;;;;;;3.03;1.50;;;13.40;73.70;;;;;;2220326;57;20989;-69
2024/02/10 07:12:27;;;;;;;;;;;13.40;73.70;;;;;;2219107;56;21058;-68
2024/02/10 07:14:56;;;;;;;2.83;1.35;;;13.40;72.60;;;;;;2215937;57;20147;-68
2024/02/10 07:17:23;;;;;;;3.75;2.40;;;13.40;73.50;;;;;;2435887;56;20986;-70
2024/02/10 07:19:52;;;;;;;4.55;2.45;;;13.40;73.50;;;;;;2435848;56;21020;-70
2024/02/10 07:22:19;;;;;;;3.20;1.90;;;13.30;73.50;;;;;;2216357;56;21030;-70
2024/02/10 07:24:48;;;;;;;4.37;1.90;;;13.30;73.60;;;;;;2435945;57;20986;-69
2024/02/10 07:27:18;;;;;;;4.28;2.17;;;13.30;73.60;;;;;;2221805;57;22074;-67
2024/02/10 07:29:50;;;;;;;4.32;2.28;;;13.30;73.60;;;;;;2216469;57;20965;-67
2024/02/10 07:32:16;;;;;;;3.25;1.83;;;13.30;73.60;;;;;;2215110;57;20974;-68
2024/02/10 07:34:47;;;;;;;3.90;2.00;;;13.30;73.70;;;;;;2436074;56;21029;-70
2024/02/10 07:37:14;;;;;;;3.92;1.85;;;13.30;73.80;;;;;;2215609;57;21018;-68
2024/02/10 07:39:48;;;;;;;3.95;1.80;;;13.30;73.90;;;;;;2435693;57;21073;-68
2024/02/10 07:42:14;;;;;;;3.92;1.90;;;13.30;73.90;;;;;;2434836;56;21026;-69
2024/02/10 07:44:41;;;;;;;3.30;1.73;;;13.30;74.00;;;;;;2216445;56;21046;-68
2024/02/10 07:47:10;;;;;;;3.95;2.10;;;13.20;73.80;;;;;;2435294;56;20962;-69
2024/02/10 07:49:36;;;;;;;3.30;2.20;;;13.30;74.00;;;;;;2216543;57;21019;-68
2024/02/10 07:52:03;;;;;;;3.95;2.05;;;13.30;74.00;;;;;;2214981;57;21029;-69
2024/02/10 07:54:32;;;;;;;3.20;1.95;;;13.30;74.00;;;;;;2215407;57;21838;-68
2024/02/10 07:56:58;;;;;;;3.45;1.98;;;13.30;74.10;;;;;;2215490;56;21498;-71
2024/02/10 07:59:30;;;;;;;3.95;2.10;;;13.30;74.10;;;;;;2216269;57;20969;-68
2024/02/10 08:02:00;;;;;;;3.97;2.50;;;13.30;74.20;;;;;;2435551;56;20953;-68
2024/02/10 08:04:27;;;;;;;3.80;2.60;;;13.30;74.20;;;;;;2431824;56;21058;-69
2024/02/10 08:06:54;;;;;;;5.12;3.22;;;13.30;74.30;;;;;;2435161;56;20973;-69
2024/02/10 08:09:20;;;;;;;4.00;2.45;;;13.30;74.20;;;;;;2215767;57;20965;-68
2024/02/10 08:11:47;;;;;;;4.18;2.42;;;13.30;74.20;;;;;;2216080;56;20973;-70
2024/02/10 08:14:17;;;;;;;5.62;3.30;;;13.30;74.30;;;;;;2435649;56;21455;-68
2024/02/10 08:16:43;;;;;;;6.07;3.53;;;13.30;74.30;;;;;;2216628;57;20961;-68
2024/02/10 08:19:09;;;;;;;6.10;3.87;;;13.30;74.30;;;;;;2435827;56;21711;-69
2024/02/10 08:21:35;;;;;;;5.95;3.75;;;13.30;74.30;;;;;;2216434;57;21029;-67
2024/02/10 08:24:05;;;;;;;5.43;3.20;;;13.40;74.40;;;;;;2215737;56;21025;-70
2024/02/10 08:26:34;;;;;;;4.25;3.03;;;13.30;74.40;;;;;;2435700;56;20965;-68
2024/02/10 08:29:00;;;;;;;7.00;3.83;;;13.30;74.80;;;;;;2436542;56;21010;-69
2024/02/10 08:31:34;;;;;;;5.25;3.75;;;13.30;74.40;;;;;;2435696;56;21030;-69
2024/02/10 08:34:01;;;;;;;5.65;4.07;;;13.40;74.60;;;;;;2435352;56;21010;-68
2024/02/10 08:36:28;;;;;;;5.25;3.40;;;13.40;74.50;;;;;;2216347;57;21056;-69
2024/02/10 08:38:56;;;;;;;5.22;3.55;;;13.40;74.60;;;;;;2215994;57;21058;-68
2024/02/10 08:41:23;;;;;;;5.35;3.55;;;13.40;74.70;;;;;;2220891;57;20965;-69
2024/02/10 08:43:49;;;;;;;5.47;3.87;;;13.40;74.70;;;;;;2220883;57;20993;-68
2024/02/10 08:46:19;;;;;;;6.47;4.28;;;13.40;74.80;;;;;;2216046;56;21001;-70
2024/02/10 08:48:47;;;;;;;5.68;3.92;;;13.40;74.90;;;;;;2220089;56;20969;-68
2024/02/10 08:51:15;;;;;;;6.05;3.58;;;13.50;74.90;;;;;;2434692;56;20993;-70
2024/02/10 08:53:41;;;;;;;5.97;3.37;;;13.50;75.00;;;;;;2219786;57;20966;-70
2024/02/10 08:56:11;;;;;;;5.55;3.83;;;13.50;74.90;;;;;;2215971;57;20946;-70
2024/02/10 08:58:39;;;;;;;6.60;4.40;;;13.50;74.90;;;;;;2215736;57;21336;-68
2024/02/10 09:01:06;;;;;;;7.28;3.97;;;13.60;75.00;;;;;;2434676;56;20930;-68
2024/02/10 09:03:33;;;;;;;5.25;3.55;;;13.60;75.00;;;;;;2216081;57;21022;-68
2024/02/10 09:05:59;;;;;;;4.37;3.08;;;13.60;74.90;;;;;;2216318;57;20978;-69
2024/02/10 09:08:26;;;;;;;5.03;3.03;;;13.60;74.80;;;;;;2215970;57;21045;-68
2024/02/10 09:10:52;;;;;;;6.12;4.22;;;13.60;74.90;;;;;;2435343;56;20950;-67
2024/02/10 09:13:19;;;;;;;7.25;4.10;;;13.60;74.90;;;;;;2215864;57;21313;-70
2024/02/10 09:15:45;;;;;;;6.37;3.53;;;13.60;75.00;;;;;;2435950;56;20938;-69
2024/02/10 09:18:12;;;;;;;5.47;3.85;;;13.70;75.10;;;;;;2216033;57;20966;-68
2024/02/10 09:20:39;;;;;;;4.90;2.95;;;13.70;75.20;;;;;;2435352;56;21066;-69
2024/02/10 09:23:05;;;;;;;5.22;2.35;;;13.70;75.20;;;;;;2215860;57;20978;-70
2024/02/10 09:25:53;;;;;;;4.07;2.58;;;13.70;75.20;;;;;;2216307;57;21506;-70
2024/02/10 09:28:19;;;;;;;3.72;2.20;;;13.80;74.90;;;;;;2214797;57;20989;-70
2024/02/10 09:30:47;;;;;;;4.35;2.35;;;13.90;75.40;;;;;;2435854;56;21444;-67
2024/02/10 09:33:26;;;;;;;5.35;2.50;;;13.80;75.20;;;;;;2215201;56;21046;-69
2024/02/10 09:35:52;;;;;;;5.20;2.78;;;13.80;75.10;;;;;;2216122;56;20981;-69
2024/02/10 09:38:22;;;;;;;6.20;3.40;;;13.90;75.40;;;;;;2215307;57;20942;-68
2024/02/10 09:40:56;;;;;;;6.37;3.95;;;13.90;75.50;;;;;;2216052;57;20989;-68
2024/02/10 09:43:31;;;;;;;11.07;7.05;;;13.90;75.50;;;;;;2435542;56;21061;-69
2024/02/10 09:46:00;;;;;;;9.18;6.43;;;13.90;75.40;;;;;;2216261;57;21114;-67
2024/02/10 09:48:26;;;;;;;12.05;7.50;;;14.00;75.50;;;;;;2435636;57;20975;-69
2024/02/10 09:50:54;;;;;;;8.48;5.43;;;14.00;75.40;;;;;;2216833;57;20974;-70
2024/02/10 09:53:20;;;;;;;7.30;4.70;;;14.00;75.30;;;;;;2436199;56;21054;-70
2024/02/10 09:55:56;;;;;;;5.50;3.37;;;14.00;75.20;;;;;;2435640;56;21381;-71
2024/02/10 09:58:27;;;;;;;6.28;4.05;;;14.10;75.30;;;;;;2435501;56;21475;-70
2024/02/10 10:00:53;;;;;;;6.72;4.43;;;14.10;75.20;;;;;;2436081;57;21025;-69
2024/02/10 10:03:20;;;;;;;7.18;4.78;;;14.10;75.10;;;;;;2434768;56;21243;-70
2024/02/10 10:05:47;;;;;;;7.97;4.07;;;14.10;75.00;;;;;;2436320;56;20946;-68
2024/02/10 10:08:17;;;;;;;7.28;4.70;;;14.10;74.80;;;;;;2435760;56;20958;-70
2024/02/10 10:10:45;;;;;;;7.53;4.53;;;14.10;74.90;;;;;;2216485;57;21033;-70
2024/02/10 10:13:11;;;;;;;7.37;4.10;;;14.10;74.90;;;;;;2435122;56;20981;-68
2024/02/10 10:15:40;;;;;;;8.10;4.10;;;14.20;75.00;;;;;;2215991;56;21478;-68
2024/02/10 10:18:14;;;;;;;7.80;4.20;;;14.20;75.10;;;;;;2434923;56;21035;-69
2024/02/10 10:20:46;;;;;;;6.65;4.10;;;14.20;74.90;;;;;;2435280;56;20994;-67
2024/02/10 10:23:15;;;;;;;5.30;3.33;;;14.20;74.90;;;;;;2217857;56;21086;-68
2024/02/10 10:25:45;;;;;;;5.40;3.70;;;14.30;75.00;;;;;;2217209;56;20969;-71
2024/02/10 10:28:13;;;;;;;5.37;3.78;;;14.20;75.00;;;;;;2434391;56;20981;-70
2024/02/10 10:30:42;;;;;;;5.57;3.28;;;14.30;75.20;;;;;;2435010;56;20985;-67
2024/02/10 10:33:10;;;;;;;6.10;3.97;;;14.30;75.20;;;;;;2221364;57;20977;-69
2024/02/10 10:35:43;;;;;;;6.10;3.47;;;14.30;75.30;;;;;;2215299;57;20977;-69
2024/02/10 10:38:12;;;;;;;5.60;3.22;;;14.30;75.30;;;;;;2215592;57;20973;-70
2024/02/10 10:40:38;;;;;;;5.80;3.90;;;14.40;75.40;;;;;;2216293;57;22377;-69
2024/02/10 10:43:10;;;;;;;5.95;4.05;;;14.40;75.40;;;;;;2219412;57;21089;-71
2024/02/10 10:45:38;;;;;;;5.35;3.80;;;14.40;75.40;;;;;;2216380;57;21038;-69
2024/02/10 10:48:05;;;;;;;6.18;4.12;;;14.40;75.30;;;;;;2214861;57;21297;-71
2024/02/10 10:50:34;;;;;;;6.68;4.07;;;14.50;75.30;;;;;;2434062;57;21045;-69
2024/02/10 10:53:12;;;;;;;6.07;4.28;;;14.50;75.00;;;;;;2434463;57;21757;-70
2024/02/10 10:55:44;;;;;;;6.80;4.40;;;14.50;74.90;;;;;;2218982;56;21855;-69
2024/02/10 10:58:16;;;;;;;6.70;4.80;;;14.50;75.20;;;;;;2218352;57;21037;-69
2024/02/10 11:00:47;;;;;;;6.00;4.12;;;14.60;75.30;;;;;;2215831;57;20986;-69
2024/02/10 11:03:14;;;;;;;7.03;4.47;;;14.60;75.20;;;;;;2215401;57;21562;-69
2024/02/10 11:05:41;;;;;;;6.18;4.22;;;14.60;75.50;;;;;;2217090;56;21765;-68
2024/02/10 11:08:13;;;;;;;5.90;3.72;;;14.70;75.70;;;;;;2216344;57;21018;-67
2024/02/10 11:10:40;;;;;;;6.15;3.45;;;14.70;75.70;;;;;;2430854;56;20978;-69
2024/02/10 11:13:07;;;;;;;5.28;3.80;;;14.70;75.70;;;;;;2213676;56;20953;-69
2024/02/10 11:15:40;;;;;;;5.55;3.72;;;14.80;75.60;;;;;;2216094;57;20989;-69
2024/02/10 11:18:19;;;;;;;5.32;3.60;;;14.80;75.50;;;;;;2216221;57;21018;-70
2024/02/10 11:20:45;;;;;;;5.68;3.90;;;14.80;75.40;;;;;;2435578;56;21495;-68
2024/02/10 11:23:13;;;;;;;6.05;3.80;;;14.90;75.60;;;;;;2215993;57;21506;-68
2024/02/10 11:25:40;;;;;;;6.43;3.78;;;14.90;75.60;;;;;;2215681;56;21005;-68
2024/02/10 11:28:07;;;;;;;4.70;3.28;;;14.90;75.50;;;;;;2215801;56;21061;-68
2024/02/10 11:30:34;;;;;;;4.65;3.30;;;14.90;75.50;;;;;;2215720;56;20965;-71
2024/02/10 11:33:03;;;;;;;5.00;3.40;;;15.00;75.50;;;;;;2435308;56;21037;-69
2024/02/10 11:35:32;;;;;;;6.30;3.80;;;15.00;75.50;;;;;;2218912;57;21094;-68
2024/02/10 11:38:04;;;;;;;4.85;3.30;;;15.00;75.40;;;;;;2439058;56;21045;-70
2024/02/10 11:40:31;;;;;;;5.32;3.22;;;15.00;75.10;;;;;;2216196;56;20965;-71
2024/02/10 11:42:58;;;;;;;5.55;3.83;;;15.10;75.00;;;;;;2435119;56;20955;-68
2024/02/10 11:45:26;;;;;;;5.03;3.30;;;15.10;74.90;;;;;;2216226;56;20977;-71
2024/02/10 11:47:55;;;;;;;5.35;3.53;;;15.10;74.90;;;;;;2216578;56;20946;-69
2024/02/10 11:50:22;;;;;;;5.53;2.87;;;15.10;74.70;;;;;;2435292;56;21005;-69
2024/02/10 11:52:48;;;;;;;4.80;3.25;;;15.10;74.70;;;;;;2435553;56;20954;-69
2024/02/10 11:55:18;;;;;;;4.70;3.25;;;15.10;74.80;;;;;;2435112;56;21423;-69
2024/02/10 11:57:54;;;;;;;4.90;3.17;;;15.10;74.90;;;;;;2215949;56;21408;-69
2024/02/10 12:00:28;;;;;;;5.12;3.28;;;15.00;74.90;;;;;;2435929;56;21341;-69
2024/02/10 12:02:54;;;;;;;4.80;3.10;;;15.10;75.10;;;;;;2216625;57;21018;-68
2024/02/10 12:05:20;;;;;;;5.35;3.03;;;15.10;75.20;;;;;;2435405;56;21773;-69
2024/02/10 12:07:48;;;;;;;4.87;3.00;;;15.10;75.30;;;;;;2215466;57;20970;-69
2024/02/10 12:10:15;;;;;;;5.43;3.10;;;15.10;75.40;;;;;;2435740;56;21402;-69
2024/02/10 12:12:42;;;;;;;5.82;3.87;;;15.10;75.40;;;;;;2215274;57;22372;-70
2024/02/10 12:15:12;;;;;;;7.78;4.32;;;15.10;75.30;;;;;;2216018;56;20966;-69
2024/02/10 12:17:44;;;;;;;5.18;3.67;;;15.20;75.10;;;;;;2215827;57;21513;-69
2024/02/10 12:20:14;;;;;;;5.82;3.90;;;15.20;74.90;;;;;;2435412;56;20974;-69
2024/02/10 12:22:43;;;;;;;5.90;4.10;;;15.20;75.50;;;;;;2219309;57;20969;-70
2024/02/10 12:25:09;;;;;;;5.55;3.90;;;15.10;74.70;;;;;;2222288;56;20990;-70
2024/02/10 12:27:36;;;;;;;5.85;4.25;;;15.10;74.70;;;;;;2434108;56;21014;-69
2024/02/10 12:30:04;;;;;;;4.95;3.50;;;15.10;74.80;;;;;;2434799;57;20981;-70
2024/02/10 12:32:32;;;;;;;5.35;3.97;;;15.10;74.90;;;;;;2216304;57;21029;-68
2024/02/10 12:35:10;;;;;;;5.78;4.22;;;15.20;75.10;;;;;;2434570;56;21046;-69
2024/02/10 12:37:38;;;;;;;5.62;3.83;;;15.10;74.90;;;;;;2216316;56;20969;-69
2024/02/10 12:40:10;;;;;;;7.53;4.75;;;15.20;75.20;;;;;;2215009;57;20970;-69
2024/02/10 12:42:36;;;;;;;8.23;6.03;;;15.20;75.30;;;;;;2219507;57;21033;-67
2024/02/10 12:45:05;;;;;;;7.78;5.82;;;15.20;75.30;;;;;;2219425;57;20974;-69
2024/02/10 12:47:32;;;;;;;7.95;6.37;;;15.20;75.20;;;;;;2215810;57;21085;-69
2024/02/10 12:49:59;;;;;;;8.18;6.00;;;15.20;75.20;;;;;;2434904;56;21399;-69
2024/02/10 12:52:26;;;;;;;7.65;6.07;;;15.20;75.20;;;;;;2435662;56;21219;-67
2024/02/10 12:54:54;;;;;;;7.30;5.70;;;15.20;75.30;;;;;;2436469;56;21006;-69